Time;durP1;ratioP1;P1;durP2;ratioP2;P2;SDS_P1;SDS_P2;PMS_P1;PMS_P2;Temp;Humidity;BMP_temperature;BMP_pressure;BME280_temperature;BME280_humidity;BME280_pressure;Samples;Min_cycle;Max_cycle;Signal;HPM_P1;HPM_P2
2022/08/31 00:05:04;;;;;;;4.13;3.83;;;21.90;99.90;;;;;;6183083;23;20024;-78
2022/08/31 00:07:30;;;;;;;3.78;3.58;;;21.90;99.90;;;;;;6183360;23;20007;-77
2022/08/31 00:09:56;;;;;;;5.50;3.47;;;21.80;99.90;;;;;;6183568;23;20072;-77
2022/08/31 00:12:22;;;;;;;4.10;3.80;;;21.80;99.90;;;;;;6183779;23;19997;-77
2022/08/31 00:14:48;;;;;;;3.70;3.50;;;21.90;99.90;;;;;;6157219;23;20084;-78
2022/08/31 00:17:14;;;;;;;3.42;3.13;;;21.90;99.90;;;;;;6183342;23;20001;-78
2022/08/31 00:19:40;;;;;;;3.22;3.03;;;21.90;99.90;;;;;;6157333;23;20062;-78
2022/08/31 00:22:06;;;;;;;3.13;2.88;;;21.90;99.90;;;;;;6183649;23;20025;-78
2022/08/31 00:24:32;;;;;;;3.65;3.35;;;21.90;99.90;;;;;;6183388;23;20001;-78
2022/08/31 00:26:59;;;;;;;3.00;2.90;;;21.90;99.90;;;;;;6157471;23;20453;-78
2022/08/31 00:29:25;;;;;;;2.80;2.60;;;21.90;99.90;;;;;;6157157;23;20385;-78
2022/08/31 00:31:51;;;;;;;3.30;3.10;;;21.90;99.90;;;;;;6183446;23;20001;-78
2022/08/31 00:34:16;;;;;;;3.10;2.90;;;21.90;99.90;;;;;;6183647;23;20441;-77
2022/08/31 00:36:44;;;;;;;3.40;3.08;;;22.00;99.90;;;;;;6157480;23;20056;-78
2022/08/31 00:39:10;;;;;;;3.63;3.33;;;22.00;99.90;;;;;;6157183;23;20426;-78
2022/08/31 00:41:37;;;;;;;3.17;2.88;;;22.00;99.90;;;;;;6183542;23;20015;-78
2022/08/31 00:44:09;;;;;;;3.50;3.28;;;22.00;99.90;;;;;;6185035;23;20008;-77
2022/08/31 00:46:38;;;;;;;3.95;3.65;;;22.00;99.90;;;;;;6185039;23;20464;-77
2022/08/31 00:49:19;;;;;;;2.80;2.70;;;22.00;99.90;;;;;;6158830;23;20438;-78
2022/08/31 00:51:59;;;;;;;3.42;3.13;;;22.00;99.90;;;;;;6158689;23;20005;-78
2022/08/31 00:54:33;;;;;;;3.50;3.20;;;22.00;99.90;;;;;;6158622;23;20015;-78
2022/08/31 00:56:59;;;;;;;2.33;2.22;;;22.00;99.90;;;;;;6184957;23;20377;-78
2022/08/31 00:59:27;;;;;;;3.25;3.05;;;22.00;99.90;;;;;;6158340;23;20009;-78
2022/08/31 01:01:53;;;;;;;7.78;2.70;;;22.00;99.90;;;;;;6184002;23;20005;-78
2022/08/31 01:04:20;;;;;;;3.28;2.97;;;22.00;99.90;;;;;;6183261;23;20055;-78
2022/08/31 01:06:47;;;;;;;7.65;3.00;;;22.00;99.90;;;;;;6157326;23;20009;-78
2022/08/31 01:09:14;;;;;;;2.80;2.70;;;22.00;99.90;;;;;;6157501;23;20006;-78
2022/08/31 01:11:41;;;;;;;3.28;2.97;;;22.00;99.90;;;;;;6183665;23;20021;-78
2022/08/31 01:14:08;;;;;;;3.67;2.30;;;22.00;99.90;;;;;;6157204;23;20381;-78
2022/08/31 01:16:42;;;;;;;2.70;2.60;;;21.90;99.90;;;;;;6183925;23;20001;-78
2022/08/31 01:19:37;;;;;;;3.65;2.75;;;21.90;99.90;;;;;;6158804;23;20393;-78
2022/08/31 01:22:15;;;;;;;2.85;2.75;;;21.90;99.90;;;;;;6054810;23;20007;-78
2022/08/31 01:24:44;;;;;;;2.75;2.55;;;21.90;99.90;;;;;;6185108;23;20005;-78
2022/08/31 01:27:11;;;;;;;2.58;2.40;;;22.00;99.90;;;;;;6185131;23;20021;-78
2022/08/31 01:29:37;;;;;;;2.70;2.60;;;22.00;99.90;;;;;;6185317;23;20004;-78
2022/08/31 01:32:04;;;;;;;2.65;2.45;;;22.00;99.90;;;;;;6158722;23;20307;-78
2022/08/31 01:34:31;;;;;;;3.25;3.00;;;22.00;99.90;;;;;;6158718;23;20013;-78
2022/08/31 01:36:57;;;;;;;4.20;2.67;;;21.90;99.90;;;;;;6185175;23;20001;-78
2022/08/31 01:39:23;;;;;;;2.58;2.40;;;21.90;99.90;;;;;;6185507;23;20054;-77
2022/08/31 01:41:49;;;;;;;2.45;2.35;;;21.90;99.90;;;;;;6158704;23;20037;-78
2022/08/31 01:44:18;;;;;;;4.65;2.67;;;21.90;99.90;;;;;;6158643;23;20446;-78
2022/08/31 01:46:45;;;;;;;4.40;2.22;;;21.80;99.90;;;;;;6158868;23;20002;-78
2022/08/31 01:49:13;;;;;;;2.28;2.17;;;21.80;99.90;;;;;;6158871;23;20001;-78
2022/08/31 01:51:38;;;;;;;2.58;2.38;;;21.80;99.90;;;;;;6184930;23;20012;-78
2022/08/31 01:54:05;;;;;;;2.20;2.10;;;21.80;99.90;;;;;;6158654;23;20952;-78
2022/08/31 01:56:35;;;;;;;5.50;2.47;;;21.80;99.90;;;;;;6185023;23;20012;-78
2022/08/31 01:59:02;;;;;;;3.20;2.90;;;21.80;99.90;;;;;;6158853;23;20032;-78
2022/08/31 02:01:31;;;;;;;3.05;2.75;;;21.80;99.90;;;;;;6184825;23;20385;-78
2022/08/31 02:03:57;;;;;;;2.42;2.33;;;21.70;99.90;;;;;;6184658;23;20005;-78
2022/08/31 02:06:23;;;;;;;2.92;2.60;;;21.70;99.90;;;;;;6184662;23;20011;-78
2022/08/31 02:08:50;;;;;;;2.13;2.03;;;21.70;99.90;;;;;;6158976;23;20021;-78
2022/08/31 02:11:16;;;;;;;2.28;2.17;;;21.70;99.90;;;;;;6184657;23;20418;-79
2022/08/31 02:13:42;;;;;;;2.40;2.20;;;21.70;99.90;;;;;;6184494;23;20044;-78
2022/08/31 02:16:08;;;;;;;2.85;2.65;;;21.60;99.90;;;;;;6184858;23;20008;-79
2022/08/31 02:18:35;;;;;;;3.08;2.17;;;21.70;99.90;;;;;;6158332;23;20032;-78
2022/08/31 02:21:02;;;;;;;2.42;2.33;;;21.70;99.90;;;;;;6158309;23;20015;-78
2022/08/31 02:23:28;;;;;;;6.85;2.50;;;21.70;99.90;;;;;;6184934;23;20079;-78
2022/08/31 02:25:54;;;;;;;2.17;2.08;;;21.70;99.90;;;;;;6184545;23;20044;-79
2022/08/31 02:28:21;;;;;;;2.40;2.17;;;21.70;99.90;;;;;;6184258;23;19997;-78
2022/08/31 02:30:47;;;;;;;2.58;2.33;;;21.70;99.90;;;;;;6158358;23;20068;-78
2022/08/31 02:33:14;;;;;;;2.22;2.13;;;21.70;99.90;;;;;;6158056;23;20008;-79
2022/08/31 02:35:40;;;;;;;2.45;2.25;;;21.70;99.90;;;;;;6184455;23;20333;-78
2022/08/31 02:38:08;;;;;;;2.47;2.28;;;21.60;99.90;;;;;;6158096;23;20444;-79
2022/08/31 02:40:37;;;;;;;1.80;1.70;;;21.60;99.90;;;;;;6158208;23;20033;-78
2022/08/31 02:43:04;;;;;;;5.50;2.05;;;21.60;99.90;;;;;;6157865;23;20445;-79
2022/08/31 02:45:30;;;;;;;2.10;2.00;;;21.50;99.90;;;;;;6157841;23;20072;-78
2022/08/31 02:47:56;;;;;;;3.55;2.10;;;21.50;99.90;;;;;;6184346;23;20008;-78
2022/08/31 02:50:22;;;;;;;2.60;2.38;;;21.50;99.90;;;;;;6184606;23;20043;-79
2022/08/31 02:52:49;;;;;;;2.08;1.98;;;21.50;99.90;;;;;;6157958;23;20012;-78
2022/08/31 02:55:16;;;;;;;1.85;1.75;;;21.50;99.90;;;;;;6184297;23;20005;-78
2022/08/31 02:57:42;;;;;;;4.93;2.28;;;21.50;99.90;;;;;;6184393;23;20075;-79
2022/08/31 03:00:09;;;;;;;2.38;2.28;;;21.50;99.90;;;;;;6158006;23;20170;-78
2022/08/31 03:02:35;;;;;;;3.72;1.63;;;21.40;99.90;;;;;;6157765;23;20036;-79
2022/08/31 03:05:06;;;;;;;2.65;2.00;;;21.40;99.90;;;;;;6165869;23;20024;-78
2022/08/31 03:07:36;;;;;;;3.80;1.67;;;21.50;99.90;;;;;;6184454;23;20452;-78
2022/08/31 03:10:04;;;;;;;2.65;1.88;;;21.40;99.90;;;;;;6184215;23;20263;-79
2022/08/31 03:12:30;;;;;;;3.15;2.10;;;21.40;99.90;;;;;;6182592;23;20337;-78
2022/08/31 03:14:55;;;;;;;2.22;2.00;;;21.40;99.90;;;;;;6184072;23;20188;-79
2022/08/31 03:17:21;;;;;;;2.30;2.10;;;21.40;99.90;;;;;;6184174;23;20396;-79
2022/08/31 03:19:47;;;;;;;2.33;2.20;;;21.40;99.90;;;;;;6184252;23;20083;-79
2022/08/31 03:22:14;;;;;;;1.95;1.85;;;21.30;99.90;;;;;;6183996;23;20080;-78
2022/08/31 03:24:40;;;;;;;2.58;1.98;;;21.20;99.90;;;;;;6183789;23;20008;-78
2022/08/31 03:27:06;;;;;;;2.00;1.90;;;21.20;99.90;;;;;;6184299;23;20307;-79
2022/08/31 03:29:31;;;;;;;2.70;2.05;;;21.20;99.90;;;;;;6182337;23;20008;-78
2022/08/31 03:31:57;;;;;;;2.53;1.85;;;21.20;99.90;;;;;;6184114;23;20024;-78
2022/08/31 03:34:23;;;;;;;2.95;2.75;;;21.20;99.90;;;;;;6182259;23;20067;-79
2022/08/31 03:36:49;;;;;;;4.03;3.83;;;21.30;99.90;;;;;;6183947;23;19997;-79
2022/08/31 03:39:14;;;;;;;4.18;3.13;;;21.40;99.90;;;;;;6183542;23;20028;-79
2022/08/31 03:41:40;;;;;;;5.95;2.70;;;21.50;99.90;;;;;;6184142;23;20007;-79
2022/08/31 03:44:06;;;;;;;3.38;2.97;;;21.60;99.90;;;;;;6183685;23;20264;-78
2022/08/31 03:46:33;;;;;;;2.70;2.50;;;21.60;99.90;;;;;;6183936;23;20007;-79
2022/08/31 03:49:01;;;;;;;3.40;2.63;;;21.60;99.90;;;;;;6183979;23;20072;-79
2022/08/31 03:51:27;;;;;;;2.75;2.58;;;21.60;99.90;;;;;;6182244;23;20084;-79
2022/08/31 03:53:53;;;;;;;3.72;2.10;;;21.50;99.90;;;;;;6183674;23;20001;-79
2022/08/31 03:56:19;;;;;;;2.28;2.10;;;21.50;99.90;;;;;;6182232;23;20012;-79
2022/08/31 03:58:45;;;;;;;2.60;2.38;;;21.50;99.90;;;;;;6182184;23;20008;-79
2022/08/31 04:01:12;;;;;;;2.55;2.05;;;21.50;99.90;;;;;;6182114;23;20036;-79
2022/08/31 04:03:39;;;;;;;2.55;2.20;;;21.50;99.90;;;;;;6183830;23;20087;-79
2022/08/31 04:06:11;;;;;;;2.28;2.17;;;21.50;99.90;;;;;;6182992;23;20389;-79
2022/08/31 04:08:38;;;;;;;4.30;2.08;;;21.50;99.90;;;;;;6183976;23;20136;-79
2022/08/31 04:11:11;;;;;;;3.92;2.00;;;21.50;99.90;;;;;;6157231;23;20381;-79
2022/08/31 04:13:38;;;;;;;2.17;2.08;;;21.50;99.90;;;;;;6157279;23;20421;-79
2022/08/31 04:16:07;;;;;;;2.10;2.00;;;21.40;99.90;;;;;;6156947;23;20009;-79
2022/08/31 04:18:34;;;;;;;2.00;1.90;;;21.50;99.90;;;;;;6157271;23;20111;-79
2022/08/31 04:21:00;;;;;;;2.20;2.00;;;21.40;99.90;;;;;;6183207;23;20009;-79
2022/08/31 04:23:28;;;;;;;2.10;2.00;;;21.40;99.90;;;;;;6157099;23;20430;-78
2022/08/31 04:25:55;;;;;;;2.08;1.90;;;21.40;99.90;;;;;;6183272;23;20005;-79
2022/08/31 04:28:21;;;;;;;1.85;1.75;;;21.40;99.90;;;;;;6157111;23;20369;-79
2022/08/31 04:30:47;;;;;;;3.30;2.10;;;21.30;99.90;;;;;;6157249;23;20059;-79
2022/08/31 04:33:13;;;;;;;2.63;1.77;;;21.30;99.90;;;;;;6157047;23;20056;-79
2022/08/31 04:35:40;;;;;;;7.85;2.25;;;21.30;99.90;;;;;;6156980;23;20017;-79
2022/08/31 04:38:07;;;;;;;2.20;1.98;;;21.30;99.90;;;;;;6183573;23;20033;-79
2022/08/31 04:40:36;;;;;;;2.30;2.10;;;21.30;99.90;;;;;;6183547;23;20076;-79
2022/08/31 04:43:02;;;;;;;2.20;2.00;;;21.20;99.90;;;;;;6183138;23;20021;-78
2022/08/31 04:45:28;;;;;;;2.08;1.95;;;21.30;99.90;;;;;;6183341;23;20008;-79
2022/08/31 04:47:54;;;;;;;2.70;2.25;;;21.20;99.90;;;;;;6156852;23;20338;-79
2022/08/31 04:50:21;;;;;;;3.47;2.17;;;21.20;99.90;;;;;;6156774;23;20009;-78
2022/08/31 04:52:49;;;;;;;5.95;2.90;;;21.10;99.90;;;;;;6157652;23;20055;-79
2022/08/31 04:55:15;;;;;;;3.47;2.45;;;21.00;99.90;;;;;;6157511;23;20009;-79
2022/08/31 04:57:41;;;;;;;2.15;2.05;;;21.00;99.90;;;;;;6157680;23;20009;-79
2022/08/31 05:00:08;;;;;;;2.83;2.20;;;21.00;99.90;;;;;;6157721;23;20015;-79
2022/08/31 05:02:35;;;;;;;3.13;2.25;;;21.10;99.90;;;;;;6183965;23;20005;-79
2022/08/31 05:08:34;;;;;;;2.25;2.10;;;21.00;99.90;;;;;;6164975;23;20044;-79
2022/08/31 05:11:11;;;;;;;5.40;2.38;;;21.00;99.90;;;;;;6183012;23;20006;-79
2022/08/31 05:13:36;;;;;;;2.60;2.40;;;20.90;99.90;;;;;;6185298;23;20001;-79
2022/08/31 05:16:09;;;;;;;2.60;2.28;;;21.00;99.90;;;;;;6183622;23;20560;-79
2022/08/31 05:18:36;;;;;;;2.53;2.42;;;21.00;99.90;;;;;;6185160;23;20084;-79
2022/08/31 05:21:19;;;;;;;5.10;2.42;;;21.00;99.90;;;;;;6185387;23;20005;-79
2022/08/31 05:23:47;;;;;;;2.30;2.10;;;21.00;99.90;;;;;;6183789;23;20338;-79
2022/08/31 05:26:18;;;;;;;3.13;2.30;;;21.00;99.90;;;;;;6185140;23;20012;-79
2022/08/31 05:28:44;;;;;;;3.08;2.33;;;20.90;99.90;;;;;;6184584;23;20337;-79
2022/08/31 05:31:10;;;;;;;5.28;2.33;;;21.00;99.90;;;;;;6182991;23;20003;-79
2022/08/31 05:33:37;;;;;;;6.90;2.15;;;21.10;99.90;;;;;;6181259;23;20032;-79
2022/08/31 05:36:03;;;;;;;2.50;2.30;;;21.10;99.90;;;;;;6182856;23;20104;-79
2022/08/31 05:38:29;;;;;;;2.25;2.15;;;21.00;99.90;;;;;;6183072;23;20016;-79
2022/08/31 05:40:57;;;;;;;2.63;1.92;;;21.00;99.90;;;;;;6182928;23;20363;-79
2022/08/31 05:43:24;;;;;;;3.17;2.20;;;21.00;99.90;;;;;;6181624;23;20481;-79
2022/08/31 05:45:50;;;;;;;6.38;2.45;;;21.10;99.90;;;;;;6185135;23;20084;-78
2022/08/31 05:48:16;;;;;;;2.00;1.90;;;21.10;99.90;;;;;;6186193;23;20028;-78
2022/08/31 05:50:41;;;;;;;2.28;1.75;;;21.10;99.90;;;;;;6186472;23;20055;-79
2022/08/31 05:53:08;;;;;;;2.28;2.08;;;21.10;99.90;;;;;;6186593;23;20001;-79
2022/08/31 05:55:33;;;;;;;6.93;1.92;;;21.10;99.90;;;;;;6186496;23;20001;-79
2022/08/31 05:57:59;;;;;;;2.30;2.05;;;21.20;99.90;;;;;;6186524;23;20008;-78
2022/08/31 06:00:25;;;;;;;3.55;2.50;;;21.20;99.90;;;;;;6186561;23;20312;-79
2022/08/31 06:02:51;;;;;;;2.25;2.15;;;21.20;99.90;;;;;;6184451;23;20004;-78
2022/08/31 06:05:18;;;;;;;2.28;2.10;;;21.30;99.90;;;;;;6186072;23;20016;-79
2022/08/31 06:07:45;;;;;;;3.17;2.30;;;21.30;99.90;;;;;;6159818;23;20310;-78
2022/08/31 06:10:13;;;;;;;2.78;2.42;;;21.40;99.90;;;;;;6186254;23;20029;-79
2022/08/31 06:12:41;;;;;;;3.60;2.88;;;21.30;99.90;;;;;;6186494;23;20008;-79
2022/08/31 06:15:08;;;;;;;4.38;2.97;;;21.40;99.90;;;;;;6185952;23;20100;-78
2022/08/31 06:17:34;;;;;;;6.22;2.83;;;21.50;99.90;;;;;;6186245;23;20000;-79
2022/08/31 06:20:01;;;;;;;2.85;2.45;;;21.50;99.90;;;;;;6185974;23;20627;-78
2022/08/31 06:22:28;;;;;;;2.65;2.20;;;21.50;99.90;;;;;;6186273;23;20025;-79
2022/08/31 06:25:23;;;;;;;4.22;2.60;;;21.50;99.90;;;;;;6186266;23;20001;-79
2022/08/31 06:27:49;;;;;;;5.03;2.78;;;21.60;99.90;;;;;;6186275;23;20008;-79
2022/08/31 06:30:20;;;;;;;6.03;3.90;;;21.70;99.90;;;;;;6159857;23;20005;-79
2022/08/31 06:32:46;;;;;;;8.23;6.15;;;21.80;99.90;;;;;;6159853;23;20048;-79
2022/08/31 06:35:13;;;;;;;11.90;6.05;;;21.90;99.90;;;;;;6186099;23;20084;-79
2022/08/31 06:37:39;;;;;;;11.95;7.65;;;22.00;99.90;;;;;;6186028;23;20009;-79
2022/08/31 06:40:05;;;;;;;15.23;8.40;;;22.00;99.90;;;;;;6185955;23;20504;-78
2022/08/31 06:42:31;;;;;;;8.27;7.28;;;22.20;99.90;;;;;;6159541;23;20315;-78
2022/08/31 06:44:57;;;;;;;8.93;6.10;;;22.20;99.90;;;;;;6183805;23;20008;-77
2022/08/31 06:47:24;;;;;;;6.05;5.60;;;22.40;99.90;;;;;;6182937;23;20051;-77
2022/08/31 06:49:51;;;;;;;8.05;7.25;;;22.40;99.90;;;;;;6182837;23;20004;-77
2022/08/31 06:52:17;;;;;;;6.60;6.10;;;22.40;99.90;;;;;;6183020;23;20024;-77
2022/08/31 06:54:43;;;;;;;7.38;6.65;;;22.50;99.90;;;;;;6183301;23;20418;-77
2022/08/31 06:57:08;;;;;;;9.32;6.15;;;22.50;99.90;;;;;;6184170;23;20009;-77
2022/08/31 06:59:34;;;;;;;6.00;5.45;;;22.60;99.90;;;;;;6184527;23;20005;-76
2022/08/31 07:02:01;;;;;;;7.75;6.72;;;22.70;99.90;;;;;;6157658;23;20012;-77
2022/08/31 07:04:31;;;;;;;8.48;7.68;;;22.80;99.90;;;;;;6158420;23;20055;-77
2022/08/31 07:06:57;;;;;;;13.07;8.20;;;22.80;99.90;;;;;;6182576;23;20005;-77
2022/08/31 07:09:23;;;;;;;8.50;7.68;;;22.90;99.90;;;;;;6184246;23;20432;-77
2022/08/31 07:11:51;;;;;;;9.43;7.63;;;22.90;99.90;;;;;;6182388;23;20341;-77
2022/08/31 07:14:20;;;;;;;8.82;7.47;;;23.00;99.90;;;;;;6183946;23;19997;-77
2022/08/31 07:16:47;;;;;;;11.18;8.30;;;23.00;99.90;;;;;;6184030;23;20001;-77
2022/08/31 07:19:13;;;;;;;7.25;6.43;;;23.10;99.90;;;;;;6182587;23;20468;-77
2022/08/31 07:21:43;;;;;;;7.07;6.47;;;23.10;99.90;;;;;;6183944;23;20005;-77
2022/08/31 07:24:11;;;;;;;9.20;6.47;;;23.10;99.90;;;;;;6183804;23;20217;-77
2022/08/31 07:26:45;;;;;;;6.85;6.13;;;23.20;99.90;;;;;;6183878;23;20005;-77
2022/08/31 07:29:13;;;;;;;6.32;5.85;;;23.30;99.90;;;;;;6183992;23;20007;-77
2022/08/31 07:31:45;;;;;;;6.00;5.50;;;23.30;99.90;;;;;;6183951;23;20079;-77
2022/08/31 07:34:24;;;;;;;8.70;5.53;;;23.40;99.90;;;;;;6181870;23;20064;-79
2022/08/31 07:42:23;;;;;;;4.88;4.47;;;23.50;99.90;;;;;;6184060;23;20012;-79
2022/08/31 07:44:51;;;;;;;4.07;3.85;;;23.50;99.90;;;;;;6183589;23;20020;-79
2022/08/31 07:47:19;;;;;;;4.28;3.88;;;23.50;99.90;;;;;;6183628;23;20067;-79
2022/08/31 07:49:51;;;;;;;3.10;2.90;;;23.50;99.90;;;;;;6182201;23;20009;-79
2022/08/31 07:52:23;;;;;;;7.55;3.67;;;23.50;99.90;;;;;;6182090;23;20059;-79
2022/08/31 07:54:51;;;;;;;5.65;3.67;;;23.50;99.90;;;;;;6182054;23;20092;-79
2022/08/31 07:57:17;;;;;;;4.50;4.10;;;23.60;99.90;;;;;;6182176;23;20017;-79
2022/08/31 07:59:45;;;;;;;5.25;4.85;;;23.60;99.90;;;;;;6182264;23;20005;-79
2022/08/31 08:02:13;;;;;;;5.18;3.95;;;23.60;99.90;;;;;;6183940;23;20437;-79
2022/08/31 08:04:41;;;;;;;5.45;4.47;;;23.60;99.90;;;;;;6181626;23;20048;-79
2022/08/31 08:07:08;;;;;;;5.45;4.40;;;23.70;99.90;;;;;;6182091;23;20005;-79
2022/08/31 08:09:33;;;;;;;6.10;4.85;;;23.70;99.90;;;;;;6183750;23;20025;-78
2022/08/31 08:12:03;;;;;;;7.95;5.40;;;23.80;99.90;;;;;;6183729;23;20310;-79
2022/08/31 08:14:29;;;;;;;7.25;5.55;;;23.80;99.90;;;;;;6181804;23;20016;-79
2022/08/31 08:16:55;;;;;;;5.53;5.00;;;23.90;99.90;;;;;;6181756;23;20001;-79
2022/08/31 08:19:22;;;;;;;5.25;4.55;;;23.90;99.90;;;;;;6183681;23;20001;-79
2022/08/31 08:21:47;;;;;;;6.07;5.05;;;23.90;99.90;;;;;;6182005;23;20426;-79
2022/08/31 08:24:14;;;;;;;5.65;4.65;;;23.90;99.90;;;;;;6181636;23;20001;-79
2022/08/31 08:26:46;;;;;;;5.53;4.15;;;23.80;99.90;;;;;;6181619;23;20075;-79
2022/08/31 08:29:12;;;;;;;11.02;4.75;;;23.80;99.90;;;;;;6183573;23;20067;-79
2022/08/31 08:31:37;;;;;;;4.90;3.85;;;23.90;99.90;;;;;;6183734;23;20073;-78
2022/08/31 08:34:03;;;;;;;4.00;3.70;;;23.90;99.90;;;;;;6183274;23;20064;-79
2022/08/31 08:36:36;;;;;;;5.13;4.10;;;23.90;99.90;;;;;;6183635;23;20095;-79
2022/08/31 08:39:06;;;;;;;4.43;4.07;;;24.00;99.90;;;;;;6183461;23;20001;-79
2022/08/31 08:41:36;;;;;;;4.97;3.78;;;24.10;99.90;;;;;;6181988;23;20100;-79
2022/08/31 08:44:06;;;;;;;5.22;4.75;;;24.10;99.90;;;;;;6181923;23;20389;-79
2022/08/31 08:46:38;;;;;;;6.55;4.57;;;24.10;99.90;;;;;;6183579;23;20040;-79
2022/08/31 08:49:27;;;;;;;6.85;4.40;;;24.20;99.90;;;;;;6181966;23;20001;-79
2022/08/31 08:51:58;;;;;;;4.40;4.00;;;24.10;99.90;;;;;;6162475;23;20092;-79
2022/08/31 08:54:39;;;;;;;4.93;4.50;;;24.00;99.90;;;;;;6183322;23;20414;-79
2022/08/31 08:57:14;;;;;;;4.70;4.27;;;24.10;99.90;;;;;;6183633;23;19997;-79
2022/08/31 08:59:44;;;;;;;7.13;4.35;;;24.20;99.90;;;;;;6183472;23;20075;-79
2022/08/31 09:02:20;;;;;;;5.13;4.32;;;24.20;99.90;;;;;;6181793;23;20341;-79
2022/08/31 09:04:58;;;;;;;5.68;4.45;;;24.30;99.90;;;;;;6181308;23;20013;-79
2022/08/31 09:07:43;;;;;;;5.22;4.72;;;24.30;99.90;;;;;;6181936;23;20009;-79
2022/08/31 09:10:26;;;;;;;4.47;3.97;;;24.30;99.90;;;;;;6183572;23;20072;-79
2022/08/31 09:12:58;;;;;;;6.00;5.50;;;24.40;99.90;;;;;;6183250;23;19997;-79
2022/08/31 09:15:41;;;;;;;;;;;24.40;99.90;;;;;;6182151;23;20151;-78
2022/08/31 09:18:13;;;;;;;5.70;4.95;;;24.60;99.90;;;;;;6183243;23;19900;-80
2022/08/31 09:20:40;;;;;;;4.47;4.10;;;24.60;99.90;;;;;;6183328;23;20365;-80
2022/08/31 09:23:06;;;;;;;4.68;4.22;;;24.70;99.90;;;;;;6183199;23;20023;-79
2022/08/31 09:25:51;;;;;;;5.00;4.47;;;24.80;99.90;;;;;;6183200;23;20005;-80
2022/08/31 09:28:32;;;;;;;4.70;4.40;;;24.70;99.90;;;;;;6183452;23;20438;-80
2022/08/31 09:30:58;;;;;;;4.78;4.38;;;24.70;99.90;;;;;;6182378;23;20001;-80
2022/08/31 09:33:27;;;;;;;5.20;4.60;;;24.80;99.90;;;;;;6184817;23;20460;-80
2022/08/31 09:36:15;;;;;;;5.88;3.65;;;24.80;99.90;;;;;;6185071;23;20001;-80
2022/08/31 09:38:43;;;;;;;4.35;4.05;;;24.80;99.90;;;;;;6183171;23;20032;-80
2022/08/31 09:41:17;;;;;;;4.72;4.32;;;24.80;99.90;;;;;;6186754;23;20087;-80
2022/08/31 09:43:43;;;;;;;4.80;4.25;;;24.80;99.90;;;;;;6186441;23;20055;-80
2022/08/31 09:46:18;;;;;;;5.38;4.88;;;24.90;99.90;;;;;;6185153;23;20013;-80
2022/08/31 09:48:57;;;;;;;4.88;4.47;;;24.90;99.90;;;;;;6182675;23;20036;-80
2022/08/31 09:51:37;;;;;;;5.40;4.82;;;24.90;99.90;;;;;;6180977;23;20023;-81
2022/08/31 09:57:01;;;;;;;5.20;4.80;;;25.00;99.90;;;;;;6183217;23;20020;-80
2022/08/31 09:59:33;;;;;;;4.90;4.40;;;24.90;99.90;;;;;;6181784;23;20342;-80
2022/08/31 10:02:01;;;;;;;4.47;4.07;;;24.90;99.90;;;;;;6183803;23;20580;-80
2022/08/31 10:04:31;;;;;;;6.57;5.10;;;25.00;99.90;;;;;;6183053;23;20380;-80
2022/08/31 10:06:56;;;;;;;5.53;5.10;;;25.00;99.90;;;;;;6182621;23;20008;-80
2022/08/31 10:09:53;;;;;;;4.90;4.50;;;25.00;99.90;;;;;;6183496;23;20001;-81
2022/08/31 10:12:35;;;;;;;4.43;4.03;;;24.90;99.90;;;;;;6152458;23;20004;-82
2022/08/31 10:15:10;;;;;;;5.50;4.70;;;25.00;99.90;;;;;;6155535;23;20012;-79
2022/08/31 10:18:01;;;;;;;6.45;5.68;;;25.10;99.90;;;;;;6181929;23;20480;-78
2022/08/31 10:20:37;;;;;;;7.18;6.35;;;25.20;99.90;;;;;;6183123;23;20005;-79
2022/08/31 10:23:33;;;;;;;6.45;5.63;;;25.20;99.90;;;;;;6155884;23;20051;-78
2022/08/31 10:26:13;;;;;;;7.32;5.97;;;25.20;99.90;;;;;;6181702;23;20009;-79
2022/08/31 10:28:49;;;;;;;4.63;4.32;;;25.20;99.90;;;;;;6155463;23;20055;-79
2022/08/31 10:31:30;;;;;;;5.50;4.68;;;25.30;99.90;;;;;;6155781;23;20536;-79
2022/08/31 10:36:59;;;;;;;4.95;4.55;;;25.30;99.90;;;;;;6182725;23;20489;-78
2022/08/31 10:39:44;;;;;;;5.25;4.55;;;25.30;99.90;;;;;;6156552;23;20507;-77
2022/08/31 10:42:28;;;;;;;4.60;4.15;;;25.40;99.90;;;;;;6155063;23;20151;-78
2022/08/31 10:45:10;;;;;;;4.80;4.25;;;25.40;99.90;;;;;;6181288;23;20009;-78
2022/08/31 10:47:42;;;;;;;5.05;4.65;;;25.40;99.90;;;;;;6181435;23;20052;-78
2022/08/31 10:50:12;;;;;;;3.83;3.53;;;25.30;99.90;;;;;;6154265;23;20000;-78
2022/08/31 10:53:02;;;;;;;4.75;4.15;;;25.30;99.90;;;;;;6181913;23;20008;-79
2022/08/31 10:56:01;;;;;;;5.28;4.88;;;25.40;99.90;;;;;;6181236;23;20008;-78
2022/08/31 10:58:44;;;;;;;6.38;5.72;;;25.40;99.90;;;;;;6156157;23;20646;-78
2022/08/31 11:01:29;;;;;;;8.50;6.90;;;25.50;99.90;;;;;;6182080;23;20005;-78
2022/08/31 11:04:33;;;;;;;7.38;6.28;;;25.50;99.90;;;;;;6181936;23;20011;-78
2022/08/31 11:07:13;;;;;;;6.47;5.80;;;25.50;99.90;;;;;;6181143;23;20017;-77
2022/08/31 11:09:53;;;;;;;8.50;6.65;;;25.40;99.90;;;;;;6181809;23;20008;-78
2022/08/31 11:12:41;;;;;;;8.50;6.93;;;25.50;99.90;;;;;;6154966;23;20040;-78
2022/08/31 11:15:21;;;;;;;11.18;6.82;;;25.50;99.90;;;;;;6154706;23;20012;-77
2022/08/31 11:18:17;;;;;;;6.95;6.32;;;25.40;99.90;;;;;;6156206;23;20009;-78
2022/08/31 11:21:34;;;;;;;6.75;6.00;;;25.40;99.90;;;;;;6155054;23;20006;-79
2022/08/31 11:24:30;;;;;;;8.32;7.15;;;25.50;99.90;;;;;;6181963;23;20012;-77
2022/08/31 11:27:10;;;;;;;7.18;6.47;;;25.60;99.90;;;;;;6182876;23;20601;-79
2022/08/31 11:29:45;;;;;;;5.95;4.90;;;25.60;99.90;;;;;;6156149;23;20688;-78
2022/08/31 11:32:11;;;;;;;5.63;5.13;;;25.60;99.90;;;;;;6156456;23;20537;-78
2022/08/31 11:34:46;;;;;;;7.15;6.03;;;25.70;99.90;;;;;;6182312;23;19998;-78
2022/08/31 11:37:32;;;;;;;5.53;5.03;;;25.70;99.90;;;;;;6182108;23;20012;-78
2022/08/31 11:39:58;;;;;;;6.57;5.47;;;25.80;99.90;;;;;;6181186;23;20005;-78
2022/08/31 11:42:27;;;;;;;5.00;4.60;;;25.80;99.90;;;;;;6154977;23;20008;-78
2022/08/31 11:45:18;;;;;;;5.40;4.80;;;25.90;99.90;;;;;;6155907;23;20051;-78
2022/08/31 11:47:45;;;;;;;5.05;4.65;;;26.00;99.90;;;;;;6155573;23;20006;-78
2022/08/31 11:50:49;;;;;;;5.65;5.00;;;26.20;99.90;;;;;;6182066;23;20394;-77
2022/08/31 11:53:30;;;;;;;5.47;4.97;;;26.40;99.90;;;;;;6181878;23;20075;-78
2022/08/31 11:56:03;;;;;;;5.90;5.38;;;26.60;99.90;;;;;;6181172;23;20001;-78
2022/08/31 11:58:38;;;;;;;7.70;5.88;;;26.60;99.90;;;;;;6182453;23;20066;-78
2022/08/31 12:01:09;;;;;;;6.78;6.10;;;26.50;99.90;;;;;;6155869;23;20059;-78
2022/08/31 12:03:35;;;;;;;6.07;5.50;;;26.50;99.90;;;;;;6155628;23;20464;-78
2022/08/31 12:06:02;;;;;;;7.10;5.35;;;26.40;99.90;;;;;;6182082;23;20009;-78
2022/08/31 12:08:51;;;;;;;7.53;5.70;;;26.50;99.90;;;;;;6182642;23;20337;-78
2022/08/31 12:11:46;;;;;;;5.18;4.75;;;26.50;99.90;;;;;;6155688;23;20009;-79
2022/08/31 12:14:18;;;;;;;7.35;5.32;;;26.60;99.90;;;;;;6182212;23;20003;-78
2022/08/31 12:17:08;;;;;;;4.78;4.38;;;26.60;99.90;;;;;;6155726;23;20001;-78
2022/08/31 12:20:01;;;;;;;5.15;4.20;;;26.80;99.90;;;;;;6156301;23;20132;-79
2022/08/31 12:25:53;;;;;;;5.35;4.35;;;26.80;99.90;;;;;;6181605;23;20071;-78
2022/08/31 12:29:08;;;;;;;4.95;4.50;;;26.70;99.90;;;;;;6181369;23;20003;-77
2022/08/31 12:31:38;;;;;;;5.63;5.13;;;26.60;99.90;;;;;;6031393;23;20527;-78
2022/08/31 12:34:11;;;;;;;5.43;4.85;;;26.60;99.90;;;;;;6031912;23;20039;-77
2022/08/31 12:36:37;;;;;;;6.43;5.82;;;26.50;99.90;;;;;;6123775;23;20080;-78
2022/08/31 12:39:20;;;;;;;4.90;4.50;;;26.70;99.90;;;;;;6181822;23;20001;-78
2022/08/31 12:41:56;;;;;;;4.65;3.53;;;27.00;99.90;;;;;;6181256;23;20081;-78
2022/08/31 12:44:29;;;;;;;4.97;3.88;;;27.40;99.90;;;;;;6154995;23;20001;-77
2022/08/31 12:46:56;;;;;;;4.10;3.28;;;27.40;99.90;;;;;;6181238;23;20001;-78
2022/08/31 12:49:51;;;;;;;4.97;4.57;;;27.40;99.90;;;;;;6180584;23;20338;-77
2022/08/31 12:52:43;;;;;;;5.35;4.85;;;27.20;99.90;;;;;;6155008;23;20009;-78
2022/08/31 12:55:33;;;;;;;4.93;4.40;;;27.40;99.90;;;;;;6154573;23;20020;-78
2022/08/31 12:58:08;;;;;;;4.15;3.80;;;27.40;99.90;;;;;;6181559;23;20005;-78
2022/08/31 13:00:42;;;;;;;4.55;3.53;;;27.60;99.90;;;;;;6181345;23;20076;-78
2022/08/31 13:03:20;;;;;;;4.15;3.83;;;27.70;99.90;;;;;;6180515;23;20012;-78
2022/08/31 13:06:07;;;;;;;4.07;3.78;;;27.90;99.90;;;;;;6180487;23;20009;-77
2022/08/31 13:08:41;;;;;;;5.03;3.88;;;27.90;99.90;;;;;;6181195;23;19997;-77
2022/08/31 13:11:16;;;;;;;4.35;3.95;;;28.00;99.90;;;;;;6181278;23;20001;-78
2022/08/31 13:13:42;;;;;;;7.78;4.40;;;28.00;99.90;;;;;;6183138;23;20072;-77
2022/08/31 13:16:08;;;;;;;4.55;4.15;;;28.10;99.90;;;;;;6183370;23;20005;-78
2022/08/31 13:18:35;;;;;;;4.60;4.20;;;28.00;99.90;;;;;;6184321;23;20005;-77
2022/08/31 13:21:05;;;;;;;3.88;3.50;;;28.00;99.90;;;;;;6183579;23;20028;-77
2022/08/31 13:23:37;;;;;;;3.20;3.00;;;28.00;99.90;;;;;;6156864;23;20381;-78
2022/08/31 13:26:24;;;;;;;4.00;3.80;;;28.10;99.90;;;;;;6157509;23;20064;-77
2022/08/31 13:28:54;;;;;;;4.40;4.10;;;28.20;99.90;;;;;;6183177;23;20397;-78
2022/08/31 13:31:29;;;;;;;6.20;3.70;;;28.40;99.90;;;;;;6183610;23;20029;-77